Time;durP1;ratioP1;P1;durP2;ratioP2;P2;SDS_P1;SDS_P2;PMS_P1;PMS_P2;Temp;Humidity;BMP_temperature;BMP_pressure;BME280_temperature;BME280_humidity;BME280_pressure;Samples;Min_cycle;Max_cycle;Signal;HPM_P1;HPM_P2
2022/04/22 00:01:20;;;;;;;17.80;8.83;;;;;;;8.60;94.67;100537.75;6001388;28;20278;-69
2022/04/22 00:04:15;;;;;;;22.67;9.90;;;;;;;8.63;94.73;100534.84;6002059;28;20031;-69
2022/04/22 00:07:11;;;;;;;18.80;9.77;;;;;;;8.54;94.65;100535.66;6015128;28;20031;-69
2022/04/22 00:10:10;;;;;;;19.83;10.02;;;;;;;8.52;94.68;100540.25;6000301;28;20471;-70
2022/04/22 00:13:05;;;;;;;19.30;9.30;;;;;;;8.52;94.65;100537.59;6014626;28;20030;-69
2022/04/22 00:16:01;;;;;;;21.90;10.48;;;;;;;8.51;94.38;100543.84;6001674;28;20085;-68
2022/04/22 00:19:00;;;;;;;23.33;11.18;;;;;;;8.49;94.68;100544.00;6000688;28;20035;-69
2022/04/22 00:21:55;;;;;;;21.88;11.32;;;;;;;8.44;94.98;100534.81;6000428;28;20034;-69
2022/04/22 00:24:51;;;;;;;26.27;12.35;;;;;;;8.37;95.07;100530.06;6000985;28;20046;-69
2022/04/22 00:27:46;;;;;;;26.67;12.07;;;;;;;8.28;95.22;100528.25;6002417;28;20062;-69
2022/04/22 00:30:41;;;;;;;18.53;10.37;;;;;;;8.35;95.28;100526.72;6003355;28;20097;-69
2022/04/22 00:33:37;;;;;;;17.93;8.80;;;;;;;8.27;95.42;100518.66;6002249;28;20074;-69
2022/04/22 00:36:32;;;;;;;24.63;8.98;;;;;;;8.25;95.14;100520.56;6005892;28;20277;-70
2022/04/22 00:39:28;;;;;;;20.23;9.77;;;;;;;8.20;95.26;100521.94;6005951;28;20130;-69
2022/04/22 00:42:26;;;;;;;21.50;9.20;;;;;;;8.16;95.33;100521.38;6005062;28;20030;-69
2022/04/22 00:45:21;;;;;;;21.15;10.15;;;;;;;8.16;95.58;100510.81;6006178;28;20027;-68
2022/04/22 00:48:18;;;;;;;24.13;11.20;;;;;;;8.11;95.18;100507.75;6005333;28;20034;-69
2022/04/22 00:51:14;;;;;;;23.23;10.55;;;;;;;8.18;95.80;100503.56;6004575;28;20030;-68
2022/04/22 00:54:09;;;;;;;20.83;9.43;;;;;;;8.22;95.60;100510.28;5987815;28;20038;-69
2022/04/22 00:57:05;;;;;;;22.27;9.73;;;;;;;8.24;95.34;100508.31;6005482;28;20030;-69
2022/04/22 01:00:03;;;;;;;19.97;9.57;;;;;;;8.20;95.51;100506.09;6005194;28;20278;-69
2022/04/22 01:02:58;;;;;;;16.40;8.57;;;;;;;8.27;95.31;100507.25;6005325;28;20289;-69
2022/04/22 01:12:21;;;;;;;18.33;9.02;;;;;;;8.03;95.54;100489.09;5998436;28;20042;-68
2022/04/22 01:15:17;;;;;;;18.67;9.30;;;;;;;8.07;95.51;100485.22;6005170;28;20039;-70
2022/04/22 01:18:16;;;;;;;15.82;8.63;;;;;;;8.09;95.54;100482.44;6019701;28;20109;-69
2022/04/22 01:21:11;;;;;;;16.90;9.00;;;;;;;7.87;95.76;100474.75;5987076;28;20039;-69
2022/04/22 01:24:06;;;;;;;20.98;9.52;;;;;;;7.97;95.68;100479.06;6004683;28;20097;-69
2022/04/22 01:27:02;;;;;;;17.87;9.70;;;;;;;7.86;95.77;100473.06;6005391;28;20039;-69
2022/04/22 01:30:00;;;;;;;24.10;10.73;;;;;;;7.80;95.66;100471.78;5987111;28;20037;-69
2022/04/22 01:32:56;;;;;;;24.05;12.27;;;;;;;7.81;95.48;100473.47;6004255;28;20442;-69
2022/04/22 01:35:51;;;;;;;20.42;10.13;;;;;;;7.73;95.27;100465.41;6003665;28;20035;-69
2022/04/22 01:38:47;;;;;;;29.57;13.23;;;;;;;7.78;95.90;100463.19;6004334;28;20035;-69
2022/04/22 01:41:42;;;;;;;25.92;10.48;;;;;;;7.79;95.25;100464.88;6004378;28;20113;-69
2022/04/22 01:44:37;;;;;;;19.53;10.37;;;;;;;7.83;95.36;100462.81;6003997;28;20383;-69
2022/04/22 01:47:33;;;;;;;20.83;8.87;;;;;;;7.87;94.82;100457.09;6004622;28;20114;-68
2022/04/22 01:50:28;;;;;;;17.30;8.60;;;;;;;7.86;94.48;100455.41;6003777;28;20567;-68
2022/04/22 01:53:23;;;;;;;18.57;8.07;;;;;;;7.94;94.13;100458.22;6003939;28;20047;-68
2022/04/22 01:56:19;;;;;;;15.20;8.03;;;;;;;7.95;94.18;100465.19;6004474;28;20062;-69
2022/04/22 01:59:15;;;;;;;16.33;7.30;;;;;;;7.90;93.09;100456.00;6004239;28;20463;-68
2022/04/22 02:02:10;;;;;;;16.80;8.13;;;;;;;8.06;93.43;100456.31;6003444;28;20045;-69
2022/04/22 02:05:06;;;;;;;16.20;8.10;;;;;;;8.00;92.90;100455.03;5986686;28;20046;-68
2022/04/22 02:08:01;;;;;;;15.07;7.65;;;;;;;8.14;92.81;100453.81;6001952;28;20031;-69
2022/04/22 02:10:57;;;;;;;15.13;7.17;;;;;;;8.20;92.43;100448.84;6003307;28;20470;-69
2022/04/22 02:13:52;;;;;;;14.95;7.60;;;;;;;8.14;92.22;100459.09;6016236;28;20038;-68
2022/04/22 02:16:47;;;;;;;13.03;6.73;;;;;;;8.19;92.41;100452.44;6004015;28;20045;-69
2022/04/22 02:19:43;;;;;;;14.93;6.77;;;;;;;8.13;91.56;100454.78;6003501;28;20426;-69
2022/04/22 02:22:39;;;;;;;11.27;5.30;;;;;;;8.01;90.65;100454.09;6003174;28;20039;-69
2022/04/22 02:25:34;;;;;;;9.88;5.32;;;;;;;7.86;89.83;100444.88;6003701;28;20034;-68
2022/04/22 02:28:32;;;;;;;12.50;4.57;;;;;;;7.83;89.52;100445.13;6003095;28;20065;-70
2022/04/22 02:31:28;;;;;;;12.65;4.50;;;;;;;7.89;89.07;100447.25;6002928;28;20030;-68
2022/04/22 02:34:24;;;;;;;9.35;4.38;;;;;;;7.87;88.25;100445.72;6003738;28;20041;-70
2022/04/22 02:37:19;;;;;;;7.32;3.35;;;;;;;7.70;87.32;100434.00;6002511;28;20474;-69
2022/04/22 02:46:42;;;;;;;8.35;3.45;;;;;;;7.53;85.14;100438.09;6002707;28;20038;-69
2022/04/22 02:49:38;;;;;;;7.32;3.42;;;;;;;7.54;85.19;100423.09;6002921;28;20519;-69
2022/04/22 02:52:34;;;;;;;7.47;3.53;;;;;;;7.49;84.57;100430.59;6002794;28;20049;-69
2022/04/22 02:55:29;;;;;;;7.37;3.10;;;;;;;7.59;84.86;100426.19;6002674;28;20043;-70
2022/04/22 02:58:24;;;;;;;9.93;3.50;;;;;;;7.58;84.91;100419.25;5984994;28;20274;-69
2022/04/22 03:01:20;;;;;;;7.18;3.28;;;;;;;7.49;83.68;100425.31;5985176;28;20038;-70
2022/04/22 03:04:15;;;;;;;7.70;3.40;;;;;;;7.48;84.28;100410.44;6001899;28;20035;-69
2022/04/22 03:07:10;;;;;;;6.30;3.47;;;;;;;7.45;84.45;100415.97;6016062;28;20030;-69
2022/04/22 03:10:06;;;;;;;5.57;2.80;;;;;;;7.38;84.87;100412.22;6001809;28;20043;-68
2022/04/22 03:13:03;;;;;;;6.22;2.78;;;;;;;7.38;83.87;100423.59;6008760;28;20278;-69
2022/04/22 03:15:59;;;;;;;8.75;3.45;;;;;;;7.35;83.95;100425.66;6003030;28;20054;-69
2022/04/22 03:18:55;;;;;;;8.60;3.28;;;;;;;7.26;84.14;100406.19;5985624;28;20052;-69
2022/04/22 03:21:50;;;;;;;4.32;2.30;;;;;;;7.43;84.37;100412.66;6000421;28;20039;-69
2022/04/22 03:24:45;;;;;;;9.07;2.53;;;;;;;7.42;83.78;100409.16;6002108;28;20045;-69
2022/04/22 03:27:41;;;;;;;4.97;2.03;;;;;;;7.36;83.55;100403.63;6002464;28;20115;-69
2022/04/22 03:30:37;;;;;;;6.57;2.60;;;;;;;7.34;83.97;100405.56;6004525;28;20482;-69
2022/04/22 03:33:33;;;;;;;7.38;2.60;;;;;;;7.28;83.51;100414.84;6002150;28;20482;-68
2022/04/22 03:36:28;;;;;;;5.63;2.63;;;;;;;7.21;83.18;100416.31;6002407;28;20042;-69
2022/04/22 03:39:23;;;;;;;6.57;2.70;;;;;;;7.16;82.73;100419.34;5996216;28;20376;-69
2022/04/22 03:42:19;;;;;;;8.50;2.70;;;;;;;7.21;83.46;100411.03;5996379;28;20274;-68
2022/04/22 03:45:14;;;;;;;5.60;2.30;;;;;;;7.11;82.46;100418.06;6002283;28;20557;-68
2022/04/22 03:48:10;;;;;;;6.00;2.40;;;;;;;7.15;83.79;100409.75;6002133;28;20062;-69
2022/04/22 03:51:05;;;;;;;5.20;2.80;;;;;;;7.03;83.69;100405.56;6000183;28;20093;-69
2022/04/22 03:54:01;;;;;;;6.47;2.72;;;;;;;6.99;84.29;100413.84;6001690;28;20030;-69
2022/04/22 04:00:10;;;;;;;7.60;2.67;;;;;;;6.93;83.87;100412.56;6001278;28;20039;-69
2022/04/22 04:03:07;;;;;;;6.53;2.38;;;;;;;6.86;84.32;100406.16;6002573;28;20475;-69
2022/04/22 04:06:02;;;;;;;8.70;2.58;;;;;;;6.92;84.52;100413.53;6012769;28;20397;-68
2022/04/22 04:18:40;;;;;;;6.57;2.83;;;;;;;6.85;84.92;100422.91;6006481;28;20067;-68
2022/04/22 04:24:51;;;;;;;5.88;2.95;;;;;;;6.85;83.81;100409.72;6006072;28;20030;-69
2022/04/22 04:27:47;;;;;;;9.73;3.53;;;;;;;6.88;83.93;100404.22;6005394;28;20043;-68
2022/04/22 04:30:43;;;;;;;7.07;2.80;;;;;;;6.76;83.70;100409.69;6005312;28;20038;-69
2022/04/22 04:33:38;;;;;;;6.32;3.10;;;;;;;6.71;83.75;100406.59;6008082;28;20039;-68
2022/04/22 04:36:34;;;;;;;7.33;2.90;;;;;;;6.68;83.85;100405.06;6006424;28;20109;-69
2022/04/22 04:39:30;;;;;;;6.43;3.05;;;;;;;6.66;84.28;100404.34;6005948;28;20285;-68
2022/04/22 04:42:25;;;;;;;6.40;3.03;;;;;;;6.63;84.53;100399.34;6005082;28;20027;-69
2022/04/22 04:45:21;;;;;;;7.72;3.10;;;;;;;6.71;83.74;100402.19;6008765;28;20093;-69
2022/04/22 04:48:17;;;;;;;7.97;2.83;;;;;;;6.73;83.99;100402.88;6005938;28;20031;-69
2022/04/22 04:51:13;;;;;;;7.63;3.30;;;;;;;6.78;83.13;100408.59;6005427;28;20058;-69
2022/04/22 04:54:08;;;;;;;6.97;3.00;;;;;;;6.68;83.47;100399.81;6005909;28;20478;-69
2022/04/22 04:57:03;;;;;;;8.60;3.10;;;;;;;6.71;84.22;100404.81;6005605;28;20061;-69
2022/04/22 04:59:59;;;;;;;7.47;2.63;;;;;;;6.78;83.83;100405.13;6005719;28;20070;-68
2022/04/22 05:02:55;;;;;;;5.32;2.30;;;;;;;7.01;83.15;100398.75;6005179;28;20034;-69
2022/04/22 05:05:51;;;;;;;8.77;3.03;;;;;;;6.90;83.02;100394.34;6009387;28;20061;-68
2022/04/22 05:08:47;;;;;;;6.32;2.95;;;;;;;6.94;83.55;100390.50;6005413;28;20041;-68
2022/04/22 05:11:42;;;;;;;8.43;3.35;;;;;;;6.92;82.98;100391.63;6009256;28;20568;-68
2022/04/22 05:14:37;;;;;;;5.40;3.20;;;;;;;6.84;83.04;100387.00;6013618;28;20104;-69
2022/04/22 05:17:34;;;;;;;7.38;2.88;;;;;;;6.84;82.79;100392.28;6003174;28;20034;-69
2022/04/22 05:20:32;;;;;;;7.35;2.80;;;;;;;6.81;82.58;100402.22;6016091;28;20053;-69
2022/04/22 05:23:27;;;;;;;8.52;2.50;;;;;;;6.86;82.49;100397.41;6006639;28;20042;-69
2022/04/22 05:26:24;;;;;;;8.07;2.83;;;;;;;6.79;83.09;100407.63;6005092;28;20034;-68
2022/04/22 05:32:39;;;;;;;;;;;;;;;6.95;81.89;100397.47;6004226;28;20042;-69
2022/04/22 05:35:34;;;;;;;7.30;2.63;;;;;;;6.90;81.60;100407.53;6004484;28;20362;-69
2022/04/22 05:38:29;;;;;;;7.40;2.72;;;;;;;6.92;81.50;100408.25;6004858;28;20072;-68
2022/04/22 05:41:25;;;;;;;10.65;3.17;;;;;;;6.70;81.77;100403.13;6003120;28;20035;-67
2022/04/22 05:44:20;;;;;;;9.37;3.43;;;;;;;6.96;81.51;100406.19;6003757;28;20383;-69
2022/04/22 05:47:16;;;;;;;7.32;2.88;;;;;;;7.07;81.05;100400.84;5995763;28;20333;-68
2022/04/22 05:50:13;;;;;;;7.90;3.20;;;;;;;6.92;81.26;100404.78;6004200;28;20041;-68
2022/04/22 05:53:08;;;;;;;6.38;3.13;;;;;;;6.77;81.31;100411.34;6004402;28;20031;-69
2022/04/22 05:56:04;;;;;;;5.68;2.72;;;;;;;6.56;82.10;100412.19;6004408;28;20061;-68
2022/04/22 05:58:59;;;;;;;6.90;3.17;;;;;;;6.71;82.64;100402.19;6004398;28;20105;-69
2022/04/22 06:01:54;;;;;;;8.17;2.60;;;;;;;6.69;82.41;100412.00;6002961;28;20038;-68
2022/04/22 06:04:50;;;;;;;6.97;2.60;;;;;;;6.83;82.17;100401.13;6011945;28;20066;-69
2022/04/22 06:07:45;;;;;;;7.85;3.15;;;;;;;6.87;82.52;100407.81;6015469;28;20030;-68
2022/04/22 06:10:41;;;;;;;7.85;3.10;;;;;;;7.10;82.22;100401.41;6002972;28;20505;-69
2022/04/22 06:13:36;;;;;;;12.80;3.45;;;;;;;6.81;81.86;100405.69;6016682;28;20122;-68
2022/04/22 06:16:32;;;;;;;7.32;3.42;;;;;;;7.02;82.53;100403.03;6004252;28;20039;-67
2022/04/22 06:19:27;;;;;;;9.40;3.53;;;;;;;7.00;81.45;100412.88;6004256;28;20180;-68
2022/04/22 06:22:23;;;;;;;10.60;3.80;;;;;;;6.97;81.68;100398.16;6002657;28;20041;-67
2022/04/22 06:25:19;;;;;;;6.85;3.45;;;;;;;7.08;81.20;100405.16;6003430;28;20112;-68
2022/04/22 06:28:15;;;;;;;9.37;3.53;;;;;;;7.09;80.89;100399.72;6005280;28;20030;-68
2022/04/22 06:31:10;;;;;;;7.63;4.03;;;;;;;7.24;80.35;100412.56;6002184;28;20287;-68
2022/04/22 06:34:05;;;;;;;12.55;4.10;;;;;;;7.18;80.45;100411.28;6003636;28;20031;-69
2022/04/22 06:37:02;;;;;;;12.17;4.87;;;;;;;6.98;81.13;100405.13;6003138;28;20109;-68
2022/04/22 06:46:25;;;;;;;12.48;4.50;;;;;;;6.83;82.71;100400.28;6003271;28;20035;-68
2022/04/22 06:49:21;;;;;;;15.85;5.18;;;;;;;6.99;81.39;100398.84;6002571;28;20035;-68
2022/04/22 06:52:16;;;;;;;8.68;4.65;;;;;;;6.75;81.81;100410.63;6002674;28;20078;-68
2022/04/22 06:55:21;;;;;;;12.90;5.80;;;;;;;6.66;82.59;100401.72;6002873;28;20042;-68
2022/04/22 06:58:17;;;;;;;10.95;4.80;;;;;;;6.92;82.18;100408.25;6002561;28;20278;-68
2022/04/22 07:01:13;;;;;;;10.45;4.82;;;;;;;6.81;81.94;100413.59;6002130;28;20039;-68
2022/04/22 07:04:09;;;;;;;13.75;6.03;;;;;;;6.73;82.22;100416.06;6002614;28;20027;-68
2022/04/22 07:07:04;;;;;;;10.05;5.03;;;;;;;7.03;81.68;100408.19;6015701;28;20031;-67
2022/04/22 07:10:00;;;;;;;10.65;5.10;;;;;;;7.29;81.38;100408.56;6002494;28;20068;-67
2022/04/22 07:12:57;;;;;;;13.75;5.38;;;;;;;7.61;79.69;100408.44;6015577;28;20038;-67
2022/04/22 07:15:53;;;;;;;9.95;4.65;;;;;;;7.27;80.17;100409.66;5985722;28;20066;-70
2022/04/22 07:18:48;;;;;;;14.90;5.30;;;;;;;7.10;80.64;100403.22;5984068;28;20110;-69
2022/04/22 07:21:44;;;;;;;10.77;5.50;;;;;;;7.34;80.86;100397.66;5999753;28;20045;-69
2022/04/22 07:24:40;;;;;;;10.80;5.18;;;;;;;7.52;79.88;100394.22;6001535;28;20557;-70
2022/04/22 07:27:41;;;;;;;14.70;4.97;;;;;;;7.78;79.32;100397.19;6002295;28;20058;-68
2022/04/22 07:30:39;;;;;;;11.43;4.32;;;;;;;8.12;77.46;100395.88;6000758;28;20402;-69
2022/04/22 07:33:35;;;;;;;8.93;4.93;;;;;;;8.14;76.56;100391.28;5980506;28;20125;-68
2022/04/22 07:36:30;;;;;;;11.32;4.97;;;;;;;7.81;77.96;100407.50;6000774;28;20038;-68
2022/04/22 07:39:26;;;;;;;11.90;5.07;;;;;;;7.92;77.94;100407.38;6001631;28;20073;-69
2022/04/22 07:42:21;;;;;;;12.50;5.05;;;;;;;7.75;78.89;100418.56;6001206;28;20039;-69
2022/04/22 07:48:31;;;;;;;11.15;4.97;;;;;;;7.65;78.91;100415.09;6005915;28;20046;-68
2022/04/22 07:51:26;;;;;;;12.73;5.32;;;;;;;7.46;79.22;100405.31;6005812;28;20475;-68
2022/04/22 07:54:22;;;;;;;10.43;4.80;;;;;;;7.62;79.06;100399.53;6006262;28;20496;-69
2022/04/22 07:57:18;;;;;;;12.13;4.70;;;;;;;8.08;77.64;100399.75;6007114;28;20258;-69
2022/04/22 08:00:13;;;;;;;13.17;5.47;;;;;;;7.83;77.84;100402.91;6005337;28;20495;-69
2022/04/22 08:03:09;;;;;;;11.45;5.20;;;;;;;8.17;77.61;100396.28;6005459;28;20066;-68
2022/04/22 08:06:10;;;;;;;12.30;5.32;;;;;;;8.21;76.39;100407.38;6007211;28;20049;-69
2022/04/22 08:09:05;;;;;;;12.00;5.13;;;;;;;8.03;76.84;100406.41;6005381;28;20037;-68
2022/04/22 08:12:01;;;;;;;12.15;4.78;;;;;;;8.30;76.46;100407.44;6007944;28;20034;-68
2022/04/22 08:14:58;;;;;;;10.88;5.40;;;;;;;7.78;78.25;100411.22;6005688;28;20050;-68
2022/04/22 08:17:53;;;;;;;12.95;5.53;;;;;;;8.30;76.40;100410.09;6006431;28;20453;-70
2022/04/22 08:20:48;;;;;;;10.07;5.30;;;;;;;8.46;76.29;100417.44;6005242;28;20035;-69
2022/04/22 08:23:44;;;;;;;13.30;5.97;;;;;;;8.40;75.88;100417.19;5994910;28;20123;-68
2022/04/22 08:26:39;;;;;;;10.43;5.13;;;;;;;8.57;74.37;100416.44;6005658;28;20035;-68
2022/04/22 08:29:35;;;;;;;11.82;5.60;;;;;;;8.44;75.57;100408.00;6006353;28;20045;-69
2022/04/22 08:32:30;;;;;;;12.20;5.43;;;;;;;8.48;75.72;100404.09;6004754;28;20043;-69
2022/04/22 08:35:25;;;;;;;12.15;5.70;;;;;;;8.71;75.82;100394.88;6005650;28;20113;-69
2022/04/22 08:38:21;;;;;;;13.93;6.60;;;;;;;9.10;73.70;100392.97;6005507;28;20045;-68
2022/04/22 08:41:17;;;;;;;12.27;5.50;;;;;;;9.26;74.16;100401.97;6004020;28;20035;-69
2022/04/22 08:44:13;;;;;;;13.38;6.03;;;;;;;9.54;72.26;100395.69;6005126;28;20546;-68
2022/04/22 08:50:25;;;;;;;13.93;6.03;;;;;;;10.06;70.84;100401.22;6004137;28;20042;-70
2022/04/22 08:53:28;;;;;;;21.33;7.22;;;;;;;9.44;72.15;100394.91;6005482;28;20073;-68
2022/04/22 08:56:24;;;;;;;15.85;5.40;;;;;;;9.55;72.35;100393.88;6004032;28;20070;-68
2022/04/22 08:59:19;;;;;;;12.83;6.47;;;;;;;9.57;72.59;100389.28;5987121;28;20039;-68
2022/04/22 09:02:16;;;;;;;12.32;6.45;;;;;;;10.29;70.52;100391.06;6003996;28;20038;-69
2022/04/22 09:05:13;;;;;;;14.23;6.68;;;;;;;9.99;71.24;100394.88;6004800;28;20073;-69
2022/04/22 09:08:10;;;;;;;12.93;5.22;;;;;;;10.45;69.48;100397.34;6004426;28;20042;-69
2022/04/22 09:11:06;;;;;;;14.30;6.43;;;;;;;10.34;69.27;100400.22;5994288;28;20062;-69
2022/04/22 09:14:02;;;;;;;13.23;5.93;;;;;;;9.91;70.73;100397.44;6001103;28;20035;-69
2022/04/22 09:16:57;;;;;;;15.20;6.15;;;;;;;10.15;70.65;100395.91;6004632;28;20278;-69
2022/04/22 09:19:53;;;;;;;13.80;6.77;;;;;;;10.20;71.02;100387.50;5987601;28;20041;-68
2022/04/22 09:22:49;;;;;;;14.90;7.57;;;;;;;10.21;70.48;100391.00;6003953;28;20042;-69
2022/04/22 09:25:45;;;;;;;13.30;7.40;;;;;;;10.39;69.43;100392.63;6004010;28;20636;-68
2022/04/22 09:28:41;;;;;;;15.88;7.47;;;;;;;10.23;70.18;100389.84;6003854;28;20041;-70
2022/04/22 09:31:46;;;;;;;15.50;7.53;;;;;;;10.43;70.05;100391.38;6002801;28;20042;-69
2022/04/22 09:34:42;;;;;;;13.90;7.55;;;;;;;10.69;69.12;100394.88;6004594;28;20096;-69
2022/04/22 09:44:35;;;;;;;17.35;8.02;;;;;;;10.98;68.90;100385.78;5886287;29;20049;-68
2022/04/22 09:47:32;;;;;;;16.95;9.43;;;;;;;11.18;67.32;100380.09;6004151;28;20031;-69
2022/04/22 09:50:43;;;;;;;19.98;9.27;;;;;;;11.00;68.09;100381.16;6002359;28;20054;-69
2022/04/22 09:53:39;;;;;;;18.80;10.23;;;;;;;10.95;68.61;100372.84;6004119;28;20055;-69
2022/04/22 09:56:34;;;;;;;22.97;10.63;;;;;;;10.85;69.58;100372.09;6009275;28;20042;-68
2022/04/22 09:59:32;;;;;;;19.60;9.67;;;;;;;11.19;69.54;100359.69;6004551;28;20023;-69
2022/04/22 10:02:29;;;;;;;19.08;9.18;;;;;;;11.88;68.24;100359.47;6002463;28;20049;-69
2022/04/22 10:05:29;;;;;;;19.85;10.65;;;;;;;12.16;65.67;100352.03;6009772;28;20046;-69
2022/04/22 10:08:28;;;;;;;23.40;10.18;;;;;;;12.06;66.09;100348.72;6003003;28;20022;-68
2022/04/22 10:11:25;;;;;;;21.02;10.27;;;;;;;11.81;66.45;100343.34;6004035;28;20050;-69
2022/04/22 10:14:33;;;;;;;18.77;10.35;;;;;;;11.86;66.47;100353.47;6003532;28;20084;-69
2022/04/22 10:17:28;;;;;;;21.27;9.98;;;;;;;11.86;66.89;100346.34;6003098;28;20039;-69
2022/04/22 10:20:27;;;;;;;18.37;9.80;;;;;;;12.14;65.32;100351.38;6002475;28;20049;-68
2022/04/22 10:23:22;;;;;;;18.40;10.23;;;;;;;11.73;67.09;100355.78;6003408;28;20266;-69
2022/04/22 10:26:18;;;;;;;20.45;9.50;;;;;;;11.49;68.12;100351.22;6002874;28;20034;-68
2022/04/22 10:29:13;;;;;;;23.20;8.83;;;;;;;11.72;67.65;100346.97;6003391;28;20458;-69
2022/04/22 10:32:09;;;;;;;17.27;8.77;;;;;;;12.06;67.12;100346.06;5984720;28;20362;-68
2022/04/22 10:35:05;;;;;;;16.90;8.68;;;;;;;12.12;66.43;100348.88;5986174;28;20046;-70
2022/04/22 10:38:01;;;;;;;13.23;7.82;;;;;;;12.37;65.57;100341.72;6002746;28;20039;-69
2022/04/22 10:40:59;;;;;;;14.33;7.60;;;;;;;12.25;67.05;100338.59;6002347;28;20085;-68
2022/04/22 10:47:16;;;;;;;13.63;6.95;;;;;;;12.61;63.87;100316.97;6002623;28;20475;-69
2022/04/22 10:50:31;;;;;;;11.75;7.40;;;;;;;12.66;64.08;100320.78;6002390;28;20034;-69
2022/04/22 10:53:27;;;;;;;13.18;6.03;;;;;;;12.86;64.64;100322.03;6002188;28;21702;-69
2022/04/22 10:56:26;;;;;;;10.93;6.40;;;;;;;12.59;65.06;100326.91;6002159;28;20085;-69
2022/04/22 10:59:21;;;;;;;14.35;6.82;;;;;;;12.73;65.97;100316.44;6002254;28;20514;-70
2022/04/22 11:02:29;;;;;;;13.20;6.50;;;;;;;12.70;65.44;100321.25;6001841;28;20031;-69
2022/04/22 11:05:30;;;;;;;11.15;6.70;;;;;;;12.85;64.70;100325.72;5999406;28;20030;-69
2022/04/22 11:08:30;;;;;;;13.50;6.30;;;;;;;12.91;65.41;100322.38;6000084;28;20096;-70
2022/04/22 11:11:26;;;;;;;12.82;6.05;;;;;;;13.50;63.93;100314.84;6002521;28;20030;-67
2022/04/22 11:14:23;;;;;;;11.55;6.25;;;;;;;13.44;63.96;100308.38;6001635;28;20032;-69
2022/04/22 11:17:36;;;;;;;14.32;6.43;;;;;;;13.28;64.13;100292.50;6000799;28;20034;-69
2022/04/22 11:20:31;;;;;;;14.40;6.90;;;;;;;13.38;64.56;100295.75;6001016;28;20174;-69
2022/04/22 11:23:41;;;;;;;11.40;5.40;;;;;;;13.75;63.27;100296.88;5983456;28;20040;-69
2022/04/22 11:26:37;;;;;;;14.43;6.80;;;;;;;13.85;62.70;100287.66;6001236;28;20278;-69
2022/04/22 11:29:32;;;;;;;11.95;6.88;;;;;;;14.30;61.30;100276.94;6000975;28;20053;-69
2022/04/22 11:32:28;;;;;;;15.57;6.55;;;;;;;14.50;60.51;100276.47;6001041;28;20079;-69
2022/04/22 11:35:28;;;;;;;11.18;6.10;;;;;;;14.34;60.46;100277.44;5984970;28;20058;-69
2022/04/22 11:38:24;;;;;;;13.35;6.78;;;;;;;14.49;60.19;100264.94;5984542;28;20434;-68
2022/04/22 11:41:20;;;;;;;14.18;7.18;;;;;;;14.66;61.11;100262.94;6000738;28;20041;-69
2022/04/22 11:44:21;;;;;;;12.60;6.47;;;;;;;14.80;60.18;100262.13;6002177;28;20035;-69
2022/04/22 11:47:17;;;;;;;10.13;5.53;;;;;;;15.21;58.07;100263.28;6001569;28;20041;-69
2022/04/22 11:50:19;;;;;;;13.03;6.33;;;;;;;15.10;58.16;100269.13;6000825;28;20034;-68
2022/04/22 11:53:17;;;;;;;14.02;6.63;;;;;;;14.72;59.42;100275.56;6001704;28;20634;-69
2022/04/22 11:56:16;;;;;;;11.27;6.78;;;;;;;14.79;58.77;100276.47;6001775;28;20097;-69
2022/04/22 11:59:11;;;;;;;9.07;5.78;;;;;;;14.68;61.04;100263.59;6000973;28;20106;-69
2022/04/22 12:05:33;;;;;;;11.27;6.13;;;;;;;14.64;59.52;100259.63;6005417;28;20061;-69
2022/04/22 12:08:28;;;;;;;10.45;5.38;;;;;;;14.70;59.10;100250.91;6001647;28;20046;-69
2022/04/22 12:11:24;;;;;;;11.20;6.80;;;;;;;14.55;59.62;100252.72;6002128;28;20027;-69
2022/04/22 12:14:24;;;;;;;10.48;5.53;;;;;;;14.81;58.49;100247.78;6001532;28;20034;-69
2022/04/22 12:17:23;;;;;;;11.45;6.00;;;;;;;14.64;58.56;100246.28;6001676;28;20045;-69
2022/04/22 12:20:19;;;;;;;10.27;6.22;;;;;;;14.75;57.95;100238.66;6000821;28;20502;-69
2022/04/22 12:23:14;;;;;;;9.23;5.35;;;;;;;15.11;56.80;100236.03;5983942;28;20035;-69
2022/04/22 12:26:20;;;;;;;8.40;4.85;;;;;;;15.19;56.91;100240.47;6001573;28;20038;-69
2022/04/22 12:29:17;;;;;;;8.95;5.10;;;;;;;15.33;56.51;100231.56;6002375;28;20070;-69
2022/04/22 12:32:13;;;;;;;9.95;5.00;;;;;;;15.37;55.72;100233.69;6010190;28;20093;-69
2022/04/22 12:35:13;;;;;;;10.95;5.32;;;;;;;15.57;55.44;100231.25;5998849;28;20035;-69
2022/04/22 12:38:12;;;;;;;12.15;5.45;;;;;;;15.34;55.77;100223.38;6005316;28;20026;-69
2022/04/22 12:41:18;;;;;;;12.13;4.75;;;;;;;15.87;55.43;100218.59;6004099;28;20094;-70
2022/04/22 12:44:14;;;;;;;10.25;4.68;;;;;;;15.85;53.81;100208.06;6006305;28;20046;-69
2022/04/22 12:53:37;;;;;;;7.55;3.88;;;;;;;15.40;54.33;100205.75;6005871;28;20030;-69
2022/04/22 12:56:34;;;;;;;7.23;3.53;;;;;;;15.74;54.38;100194.38;6005876;28;20042;-70
2022/04/22 12:59:49;;;;;;;7.75;3.97;;;;;;;15.62;53.24;100183.41;6016309;28;20269;-69
2022/04/22 13:02:46;;;;;;;6.38;3.47;;;;;;;15.76;52.70;100192.38;5992733;28;20107;-69
2022/04/22 13:05:41;;;;;;;7.05;3.88;;;;;;;15.56;52.94;100197.53;6014308;28;20038;-69
2022/04/22 13:08:36;;;;;;;8.10;4.30;;;;;;;15.14;53.82;100198.25;6008705;28;20491;-69
2022/04/22 13:11:33;;;;;;;7.47;3.60;;;;;;;15.32;54.31;100198.69;6007925;28;20038;-69
2022/04/22 13:14:28;;;;;;;15.40;6.07;;;;;;;14.96;54.96;100197.84;6015388;28;20038;-70
2022/04/22 13:17:26;;;;;;;8.03;3.73;;;;;;;14.94;55.07;100186.53;6004869;28;20027;-70
2022/04/22 13:20:21;;;;;;;8.52;3.38;;;;;;;14.71;55.85;100194.66;6004452;28;20549;-70
2022/04/22 13:23:17;;;;;;;8.93;4.10;;;;;;;14.71;56.36;100192.00;6003995;28;20026;-69
2022/04/22 13:26:13;;;;;;;7.20;3.80;;;;;;;14.89;55.81;100188.94;6004804;28;20114;-69
2022/04/22 13:29:08;;;;;;;8.30;4.75;;;;;;;15.05;55.51;100191.41;6003917;28;20393;-69
2022/04/22 13:32:03;;;;;;;5.93;3.27;;;;;;;15.19;54.80;100179.03;6002317;28;20049;-69
2022/04/22 13:34:59;;;;;;;7.22;3.80;;;;;;;15.07;55.35;100184.03;6004316;28;20027;-69
2022/04/22 13:37:54;;;;;;;5.63;2.80;;;;;;;15.17;54.64;100175.69;6003487;28;20054;-69
2022/04/22 13:40:49;;;;;;;5.93;2.97;;;;;;;15.19;54.59;100179.81;6003028;28;20080;-69
2022/04/22 13:43:45;;;;;;;8.00;3.47;;;;;;;15.39;54.80;100178.19;6004270;28;20062;-69
2022/04/22 13:53:27;;;;;;;5.88;2.72;;;;;;;14.77;54.81;100187.75;5931881;29;20048;-69
2022/04/22 13:56:23;;;;;;;8.87;3.47;;;;;;;14.65;56.06;100198.06;6003512;28;20035;-69
2022/04/22 13:59:18;;;;;;;6.97;3.33;;;;;;;14.30;56.72;100188.91;6004602;28;20035;-69
2022/04/22 14:02:13;;;;;;;8.20;3.00;;;;;;;14.24;56.74;100196.84;6003285;28;20039;-70
2022/04/22 14:05:08;;;;;;;7.30;3.67;;;;;;;14.21;56.65;100192.66;6007334;28;20086;-69
2022/04/22 14:08:04;;;;;;;7.75;2.92;;;;;;;14.17;56.36;100186.06;6003619;28;20031;-69
2022/04/22 14:11:00;;;;;;;4.97;2.63;;;;;;;14.26;55.67;100203.66;6002856;28;20116;-69
2022/04/22 14:13:55;;;;;;;4.23;2.77;;;;;;;14.25;55.78;100198.47;6003655;28;20062;-69
2022/04/22 14:16:50;;;;;;;4.43;2.60;;;;;;;14.28;55.92;100198.94;6003630;28;20030;-69
2022/04/22 14:19:47;;;;;;;4.85;2.67;;;;;;;14.25;56.32;100201.16;5986237;28;20390;-69
2022/04/22 14:22:42;;;;;;;7.65;3.00;;;;;;;14.13;56.99;100192.75;6002374;28;20043;-69
2022/04/22 14:25:38;;;;;;;7.47;2.97;;;;;;;14.13;56.47;100195.41;6003089;28;20046;-69
2022/04/22 14:28:33;;;;;;;7.18;3.42;;;;;;;14.15;57.35;100198.75;6000685;28;20031;-69
2022/04/22 14:31:29;;;;;;;8.45;4.03;;;;;;;14.25;57.68;100188.66;6002860;28;20062;-69
2022/04/22 14:34:25;;;;;;;6.80;3.40;;;;;;;14.25;57.09;100182.47;6003760;28;20445;-69
2022/04/22 14:37:20;;;;;;;8.13;3.60;;;;;;;14.28;57.45;100196.28;6003807;28;20070;-69
2022/04/22 14:40:16;;;;;;;8.30;3.10;;;;;;;14.42;57.10;100194.66;6002810;28;20038;-69
2022/04/22 14:43:11;;;;;;;12.93;5.20;;;;;;;14.60;56.91;100194.28;6002610;28;20485;-69
2022/04/22 14:46:06;;;;;;;8.00;3.17;;;;;;;14.74;57.15;100198.78;6005472;28;20341;-69
2022/04/22 14:49:03;;;;;;;7.67;3.57;;;;;;;14.57;57.12;100208.81;6003384;28;20278;-70
2022/04/22 14:52:00;;;;;;;7.50;3.42;;;;;;;14.55;57.37;100197.53;6002363;28;20498;-69